< < Back
Terminal Aerodrome Forecast


Current Version              Previous Versions:   1  2  3  4  5  6  7  8  9  

Terminal Aerodrome Forecast

216
FTUS44 KMOB 281134
TAFPNS
TAF
KPNS 281134Z 2812/2912 36003KT P6SM SKC
     FM281800 14007KT P6SM FEW050
     FM282100 15009KT P6SM VCTS SCT250CB
     FM290000 20006KT P6SM SKC=



Latest METAR

910
SAUS70 KWBC 291400 RRJ
MTRPNS
METAR KPNS 291353Z 10006KT 10SM CLR 24/20 A3010 RMK AO2 LTG DSNT SE
SLP192 T02440200


USA.gov is the U.S. government's official web portal to all federal, state and local government web resources and services.